Time;durP1;ratioP1;P1;durP2;ratioP2;P2;SDS_P1;SDS_P2;PMS_P1;PMS_P2;Temp;Humidity;BMP_temperature;BMP_pressure;BME280_temperature;BME280_humidity;BME280_pressure;Samples;Min_cycle;Max_cycle;Signal;HPM_P1;HPM_P2
2022/02/11 00:01:00;;;;;;;12.75;5.63;;;;;;;3.45;97.25;102234.34;5054875;28;20086;-35
2022/02/11 00:08:55;;;;;;;10.43;5.30;;;;;;;3.21;97.48;102229.56;5055068;28;20492;-36
2022/02/11 00:11:29;;;;;;;8.23;5.10;;;;;;;3.15;97.69;102231.00;5054526;28;20033;-36
2022/02/11 00:13:54;;;;;;;14.57;6.72;;;;;;;3.16;97.95;102246.03;5054424;28;20102;-36
2022/02/11 00:16:20;;;;;;;11.67;4.80;;;;;;;3.13;97.69;102243.69;5054651;28;20036;-36
2022/02/11 00:18:45;;;;;;;9.17;5.17;;;;;;;3.12;97.89;102239.31;5054080;28;20389;-36
2022/02/11 00:21:11;;;;;;;7.70;5.43;;;;;;;3.09;97.87;102235.13;5054278;28;20044;-36
2022/02/11 00:23:38;;;;;;;11.30;5.57;;;;;;;3.05;97.23;102240.91;5053659;28;20048;-36
2022/02/11 00:26:04;;;;;;;8.93;4.80;;;;;;;3.03;97.94;102233.03;5054928;28;20028;-36
2022/02/11 00:33:41;;;;;;;11.50;5.07;;;;;;;3.04;97.44;102236.56;5053776;28;20124;-36
2022/02/11 00:36:09;;;;;;;9.65;4.25;;;;;;;2.98;97.22;102229.13;5054490;28;20029;-35
2022/02/11 00:38:56;;;;;;;9.35;4.75;;;;;;;2.98;97.84;102235.31;5053870;28;20078;-35
2022/02/11 01:03:15;;;;;;;11.82;3.95;;;;;;;2.79;96.78;102208.69;5053320;28;20090;-35
2022/02/11 01:05:40;;;;;;;7.93;4.50;;;;;;;2.88;96.57;102233.66;5053774;28;20025;-35
2022/02/11 01:08:06;;;;;;;9.00;4.13;;;;;;;2.86;96.98;102233.81;5054276;28;20048;-35
2022/02/11 01:10:33;;;;;;;8.30;4.30;;;;;;;2.80;96.92;102223.72;5053849;28;20100;-35
2022/02/11 01:12:58;;;;;;;6.93;3.72;;;;;;;2.83;97.01;102228.75;5053323;28;20056;-35
2022/02/11 01:15:25;;;;;;;12.13;4.87;;;;;;;2.82;96.65;102225.22;5052222;28;20079;-35
2022/02/11 01:17:57;;;;;;;11.50;4.57;;;;;;;2.81;96.40;102231.56;5053287;28;20452;-35
2022/02/11 01:30:58;;;;;;;8.30;4.10;;;;;;;2.82;95.89;102230.56;5052966;28;20115;-35
2022/02/11 01:52:46;;;;;;;10.55;4.53;;;;;;;2.78;95.42;102234.56;5011355;28;20439;-36
2022/02/11 02:24:09;;;;;;;13.50;4.10;;;;;;;2.78;95.55;102229.22;5020784;28;20076;-35
2022/02/11 02:26:58;;;;;;;13.15;3.90;;;;;;;2.83;95.74;102224.25;5057271;28;20069;-36
2022/02/11 02:57:46;;;;;;;9.93;2.75;;;;;;;3.22;98.54;102229.44;4937062;29;20043;-36
2022/02/11 03:50:04;;;;;;;10.55;2.92;;;;;;;3.77;99.33;102256.09;5033207;28;20040;-35
2022/02/11 04:59:53;;;;;;;12.40;3.15;;;;;;;4.13;94.01;102393.47;5031773;28;20040;-35
2022/02/11 05:02:25;;;;;;;17.20;3.43;;;;;;;4.10;94.17;102399.16;5031316;28;20033;-36
2022/02/11 05:04:54;;;;;;;12.05;3.13;;;;;;;4.09;94.74;102394.78;5047989;28;20436;-36
2022/02/11 05:07:20;;;;;;;13.30;2.60;;;;;;;4.08;95.00;102397.59;5053717;28;20472;-35
2022/02/11 05:09:45;;;;;;;14.43;3.03;;;;;;;4.03;94.52;102399.88;5053623;28;20033;-36
2022/02/11 05:12:10;;;;;;;11.33;2.83;;;;;;;4.03;94.25;102416.78;5053781;28;20033;-35
2022/02/11 05:14:35;;;;;;;12.60;2.97;;;;;;;4.04;94.21;102418.47;5053508;28;20032;-36
2022/02/11 05:17:01;;;;;;;14.90;3.17;;;;;;;4.03;93.84;102424.81;5053392;28;20489;-36
2022/02/11 05:19:26;;;;;;;15.50;3.27;;;;;;;3.93;93.90;102407.13;5053711;28;20029;-35
2022/02/11 05:21:51;;;;;;;20.13;3.87;;;;;;;4.05;93.40;102436.25;5051744;28;20037;-35
2022/02/11 05:24:17;;;;;;;13.40;3.63;;;;;;;4.07;93.52;102439.59;5053345;28;20035;-35
2022/02/11 05:26:42;;;;;;;11.10;2.80;;;;;;;4.07;92.78;102441.44;5052956;28;20025;-35
2022/02/11 05:29:07;;;;;;;15.97;3.50;;;;;;;4.01;92.68;102423.31;5052101;28;20033;-35
2022/02/11 05:31:33;;;;;;;14.57;3.50;;;;;;;4.09;93.06;102444.78;5053136;28;20171;-35
2022/02/11 05:33:58;;;;;;;17.90;3.63;;;;;;;4.06;93.23;102448.63;5053251;28;20477;-35
2022/02/11 05:36:24;;;;;;;15.17;3.80;;;;;;;4.07;93.21;102454.81;5053239;28;20446;-35
2022/02/11 05:38:49;;;;;;;19.90;4.07;;;;;;;4.06;92.67;102458.50;5053622;28;20036;-35
2022/02/11 05:41:14;;;;;;;15.00;3.27;;;;;;;4.05;93.17;102465.69;5053103;28;20025;-35
2022/02/11 05:43:40;;;;;;;13.53;3.63;;;;;;;4.05;92.38;102472.84;5053126;28;20457;-35
2022/02/11 05:46:08;;;;;;;11.55;3.65;;;;;;;4.03;91.77;102478.38;5053325;28;20068;-35
2022/02/11 05:48:36;;;;;;;20.17;3.70;;;;;;;4.04;91.99;102482.72;5057627;28;20329;-35
2022/02/11 05:51:01;;;;;;;16.77;3.63;;;;;;;4.00;90.85;102476.00;5058975;28;20040;-35
2022/02/11 05:53:28;;;;;;;12.05;2.83;;;;;;;4.04;90.38;102481.88;5059908;28;20048;-36
2022/02/11 05:55:53;;;;;;;11.20;2.50;;;;;;;4.12;91.12;102498.91;5060027;28;20041;-34
2022/02/11 05:58:18;;;;;;;16.83;3.57;;;;;;;4.12;90.30;102495.38;5059558;28;20037;-34
2022/02/11 06:00:44;;;;;;;13.53;3.00;;;;;;;4.11;90.57;102502.56;5060137;28;20021;-35
2022/02/11 06:03:09;;;;;;;10.43;3.20;;;;;;;4.11;90.96;102524.00;5058779;28;20071;-35
2022/02/11 06:05:34;;;;;;;16.43;3.20;;;;;;;4.08;91.04;102524.28;5059669;28;20033;-35
2022/02/11 06:08:00;;;;;;;13.57;2.77;;;;;;;4.06;91.65;102522.75;5058284;28;20029;-34
2022/02/11 06:10:25;;;;;;;12.60;2.63;;;;;;;4.05;91.61;102532.63;5059237;28;20036;-35
2022/02/11 06:12:50;;;;;;;12.50;2.83;;;;;;;4.02;91.96;102534.75;5059331;28;20036;-34
2022/02/11 06:15:16;;;;;;;16.13;3.00;;;;;;;3.90;92.01;102522.50;5059741;28;20111;-35
2022/02/11 06:17:41;;;;;;;10.10;2.67;;;;;;;3.95;92.49;102541.66;5058313;28;20037;-35
2022/02/11 06:20:08;;;;;;;13.73;3.00;;;;;;;3.79;92.81;102528.88;5059913;28;20017;-35
2022/02/11 06:22:33;;;;;;;13.25;3.22;;;;;;;3.85;92.56;102549.72;5059297;28;20032;-35
2022/02/11 06:24:59;;;;;;;14.47;3.93;;;;;;;3.86;92.63;102554.09;5059157;28;20047;-35
2022/02/11 06:27:25;;;;;;;16.48;4.13;;;;;;;3.88;92.71;102560.97;5059355;28;20040;-35
2022/02/11 06:29:50;;;;;;;22.63;4.63;;;;;;;3.91;92.93;102575.91;5059363;28;20035;-34
2022/02/11 06:32:15;;;;;;;15.40;3.33;;;;;;;3.93;92.88;102578.44;5060081;28;20060;-34
2022/02/11 06:34:41;;;;;;;11.53;2.77;;;;;;;3.94;93.07;102582.78;5059913;28;20029;-35
2022/02/11 06:37:06;;;;;;;14.90;4.10;;;;;;;3.92;92.93;102584.78;5059468;28;20033;-35
2022/02/11 06:39:32;;;;;;;15.18;3.63;;;;;;;3.84;93.41;102577.47;5059432;28;20457;-35
2022/02/11 06:41:58;;;;;;;27.50;4.90;;;;;;;3.94;93.77;102604.22;5059089;28;20036;-35
2022/02/11 06:44:23;;;;;;;15.82;3.42;;;;;;;3.95;93.30;102608.56;5059170;28;20428;-35
2022/02/11 06:46:49;;;;;;;17.43;4.03;;;;;;;3.88;93.50;102601.13;5059316;28;20036;-35
2022/02/11 06:49:14;;;;;;;12.57;3.37;;;;;;;3.95;93.95;102613.91;5059111;28;20033;-35
2022/02/11 06:51:40;;;;;;;19.25;3.60;;;;;;;3.97;93.77;102620.00;5059164;28;20029;-35
2022/02/11 06:54:05;;;;;;;16.67;3.57;;;;;;;3.94;92.93;102630.97;5059982;28;20045;-35
2022/02/11 06:56:30;;;;;;;18.97;4.90;;;;;;;3.91;92.04;102636.63;5059597;28;20416;-35
2022/02/11 06:58:56;;;;;;;16.10;3.87;;;;;;;3.92;92.06;102646.34;5057623;28;20472;-35
2022/02/11 07:01:23;;;;;;;12.83;3.77;;;;;;;3.80;92.04;102632.25;5055486;28;20029;-35
2022/02/11 07:03:49;;;;;;;15.15;3.47;;;;;;;3.87;91.68;102658.31;5055591;28;20481;-34
2022/02/11 07:06:14;;;;;;;12.77;3.00;;;;;;;3.78;90.97;102659.16;5056130;28;20117;-35
2022/02/11 07:08:39;;;;;;;14.60;3.07;;;;;;;3.75;90.94;102664.78;5056016;28;20021;-35
2022/02/11 07:11:05;;;;;;;17.47;4.47;;;;;;;3.74;90.23;102668.47;5056335;28;20074;-35
2022/02/11 07:13:30;;;;;;;17.73;4.40;;;;;;;3.75;91.33;102680.84;5055709;28;20091;-36
2022/02/11 07:15:56;;;;;;;13.53;3.10;;;;;;;3.78;90.25;102691.28;5056452;28;20029;-36
2022/02/11 07:18:21;;;;;;;20.70;3.90;;;;;;;3.71;90.28;102682.16;5056083;28;20025;-36
2022/02/11 07:20:49;;;;;;;11.93;3.33;;;;;;;3.65;90.73;102681.84;5056184;28;20420;-35
2022/02/11 07:23:14;;;;;;;10.57;2.58;;;;;;;3.63;90.67;102700.72;5055688;28;20040;-35
2022/02/11 07:25:40;;;;;;;12.77;3.20;;;;;;;3.68;90.33;102719.88;5055533;28;20564;-34
2022/02/11 07:28:05;;;;;;;13.98;3.30;;;;;;;3.60;89.80;102715.22;5054162;28;20029;-35
2022/02/11 07:30:31;;;;;;;18.60;2.90;;;;;;;3.70;89.65;102725.06;5055221;28;20470;-35
2022/02/11 07:32:57;;;;;;;11.93;2.70;;;;;;;3.69;90.20;102736.78;5055362;28;20429;-35
2022/02/11 07:35:22;;;;;;;12.68;2.80;;;;;;;3.58;89.65;102722.53;5055679;28;20021;-34
2022/02/11 07:37:49;;;;;;;16.13;3.20;;;;;;;3.77;90.05;102743.13;5055530;28;20021;-35
2022/02/11 07:40:14;;;;;;;13.20;3.13;;;;;;;3.57;89.79;102712.00;5055301;28;20060;-35
2022/02/11 07:42:44;;;;;;;16.33;2.87;;;;;;;3.92;89.44;102753.41;5055072;28;20092;-35
2022/02/11 07:45:11;;;;;;;16.55;3.80;;;;;;;3.95;89.97;102769.16;5054886;28;20027;-35
2022/02/11 07:47:36;;;;;;;;;;;;;;;4.10;90.01;102789.22;5055763;28;20029;-34
2022/02/11 07:50:02;;;;;;;11.73;2.13;;;;;;;3.99;89.50;102800.03;5055334;28;19939;-35
2022/02/11 07:52:27;;;;;;;7.35;1.88;;;;;;;3.69;89.97;102785.78;5054958;28;20377;-35
2022/02/11 07:54:52;;;;;;;6.47;2.10;;;;;;;3.74;89.76;102818.31;5055055;28;20461;-35
2022/02/11 07:57:18;;;;;;;10.00;2.20;;;;;;;3.59;89.81;102820.53;5054833;28;20040;-35
2022/02/11 07:59:44;;;;;;;8.77;2.00;;;;;;;3.55;90.32;102834.31;5054939;28;20414;-35
2022/02/11 08:02:11;;;;;;;9.70;1.90;;;;;;;3.47;91.42;102832.34;5054671;28;20036;-34
2022/02/11 08:04:36;;;;;;;;;;;;;;;3.52;91.26;102834.59;5055986;28;20408;-35
2022/02/11 08:07:01;;;;;;;9.15;1.90;;;;;;;3.40;91.21;102824.97;5054679;28;19915;-35
2022/02/11 08:09:27;;;;;;;8.00;2.03;;;;;;;3.53;91.29;102844.31;5054380;28;20029;-35
2022/02/11 08:11:53;;;;;;;10.90;2.40;;;;;;;3.58;91.99;102850.09;5054234;28;20025;-35
2022/02/11 08:14:19;;;;;;;13.48;2.40;;;;;;;3.61;91.41;102860.53;5055276;28;20416;-35
2022/02/11 08:16:44;;;;;;;10.23;2.83;;;;;;;3.62;91.12;102862.25;5053066;28;20041;-36
2022/02/11 08:19:10;;;;;;;6.97;1.93;;;;;;;3.61;91.73;102873.91;5054813;28;20465;-35
2022/02/11 08:21:35;;;;;;;9.37;2.47;;;;;;;3.63;91.94;102874.63;5054290;28;20039;-34
2022/02/11 08:24:02;;;;;;;13.80;2.70;;;;;;;3.70;92.56;102880.28;5054511;28;20108;-35
2022/02/11 08:26:29;;;;;;;9.82;1.90;;;;;;;3.74;91.32;102877.19;5054563;28;20033;-35
2022/02/11 08:28:56;;;;;;;11.68;2.75;;;;;;;3.80;91.56;102876.63;5053837;28;20115;-35
2022/02/11 08:31:22;;;;;;;11.60;2.25;;;;;;;3.83;91.35;102875.53;5054904;28;20021;-35
2022/02/11 08:33:49;;;;;;;7.50;2.75;;;;;;;3.85;91.17;102879.75;5054754;28;20048;-34
2022/02/11 08:36:15;;;;;;;10.65;2.53;;;;;;;3.85;90.84;102901.16;5054510;28;20170;-35
2022/02/11 08:38:40;;;;;;;7.53;2.17;;;;;;;3.74;90.54;102893.25;5053998;28;20476;-35
2022/02/11 08:41:07;;;;;;;10.30;2.35;;;;;;;3.83;90.89;102911.16;5054459;28;20110;-35
2022/02/11 08:43:32;;;;;;;8.82;1.92;;;;;;;3.91;90.33;102906.97;5053738;28;20021;-35
2022/02/11 08:45:58;;;;;;;10.90;2.20;;;;;;;3.99;89.75;102910.63;5054478;28;20529;-35
2022/02/11 08:48:23;;;;;;;8.13;2.27;;;;;;;4.07;89.90;102910.81;5053780;28;20477;-35
2022/02/11 08:50:49;;;;;;;11.27;2.90;;;;;;;4.13;89.06;102917.44;5053898;28;20381;-34
2022/02/11 08:53:16;;;;;;;11.07;2.37;;;;;;;4.14;88.47;102921.78;5053517;28;20485;-35
2022/02/11 08:55:41;;;;;;;9.13;2.35;;;;;;;4.10;89.02;102923.09;5054040;28;20033;-35
2022/02/11 08:58:07;;;;;;;11.00;2.70;;;;;;;3.98;89.20;102902.75;5053669;28;20036;-35
2022/02/11 09:00:32;;;;;;;10.27;2.13;;;;;;;4.21;88.13;102939.03;5053936;28;20132;-35
2022/02/11 09:02:59;;;;;;;11.35;2.53;;;;;;;4.33;88.65;102943.25;5053254;28;20071;-35
2022/02/11 09:05:27;;;;;;;9.23;2.72;;;;;;;4.34;88.18;102944.97;5053589;28;20181;-35
2022/02/11 09:07:54;;;;;;;12.23;2.50;;;;;;;4.31;88.77;102950.59;5053454;28;20025;-35
2022/02/11 09:10:21;;;;;;;11.68;2.70;;;;;;;4.25;88.36;102953.84;5053500;28;20476;-35
2022/02/11 09:12:47;;;;;;;8.68;2.22;;;;;;;4.23;89.49;102955.78;5052348;28;20041;-35
2022/02/11 09:15:12;;;;;;;10.35;2.25;;;;;;;4.24;89.21;102957.47;5053197;28;20398;-35
2022/02/11 09:17:37;;;;;;;11.73;2.30;;;;;;;4.26;88.81;102955.53;5053374;28;20032;-35
2022/02/11 09:20:03;;;;;;;8.70;2.20;;;;;;;4.32;89.16;102957.66;5053665;28;20029;-33
2022/02/11 09:22:30;;;;;;;11.63;2.47;;;;;;;4.41;88.47;102968.53;5052473;28;20429;-35
2022/02/11 09:24:55;;;;;;;11.43;2.50;;;;;;;4.50;86.92;102975.72;5053329;28;20021;-34
2022/02/11 09:27:21;;;;;;;12.30;2.53;;;;;;;4.57;87.11;102971.50;5053284;28;20032;-35
2022/02/11 09:29:46;;;;;;;8.48;2.38;;;;;;;4.64;86.00;102968.13;5053334;28;20039;-35
2022/02/11 09:32:12;;;;;;;13.23;3.20;;;;;;;4.74;86.59;102976.19;5053297;28;20115;-35
2022/02/11 09:34:38;;;;;;;10.48;2.47;;;;;;;4.84;85.87;102979.69;5053140;28;20025;-35
2022/02/11 09:37:04;;;;;;;13.05;2.55;;;;;;;4.98;86.19;102983.78;5053153;28;20033;-35
2022/02/11 09:39:29;;;;;;;12.18;3.03;;;;;;;5.04;84.91;102979.69;5053728;28;20033;-35
2022/02/11 09:41:55;;;;;;;13.13;2.87;;;;;;;5.03;84.66;102984.22;5053112;28;20032;-35
2022/02/11 09:44:24;;;;;;;11.50;2.92;;;;;;;5.12;85.23;102987.84;5052545;28;20037;-35
2022/02/11 09:46:50;;;;;;;11.38;2.17;;;;;;;5.17;80.75;102996.31;5053329;28;20450;-35
2022/02/11 09:49:17;;;;;;;12.15;2.47;;;;;;;5.20;81.74;102987.16;5053383;28;20025;-35
2022/02/11 09:51:44;;;;;;;14.25;3.30;;;;;;;5.24;82.14;102994.78;5052732;28;20492;-36
2022/02/11 09:54:15;;;;;;;18.88;3.60;;;;;;;5.27;81.67;102997.19;5052845;28;20053;-36
2022/02/11 09:56:40;;;;;;;15.20;2.95;;;;;;;5.38;79.84;103004.22;5053045;28;20044;-36
2022/02/11 09:59:06;;;;;;;14.27;3.03;;;;;;;5.47;80.02;103018.63;5053569;28;20025;-36
2022/02/11 10:01:32;;;;;;;16.85;2.83;;;;;;;5.53;79.75;103026.91;5052910;28;20017;-35
2022/02/11 10:04:18;;;;;;;11.73;2.77;;;;;;;5.52;79.19;103006.44;5053127;28;20389;-35
2022/02/11 10:06:51;;;;;;;9.52;2.40;;;;;;;5.64;78.57;103029.44;5052877;28;20166;-35
2022/02/11 10:09:19;;;;;;;12.25;3.30;;;;;;;5.67;78.84;103025.63;5053622;28;20029;-35
2022/02/11 10:11:45;;;;;;;13.52;3.10;;;;;;;5.69;79.28;103029.00;5052571;28;20441;-35
2022/02/11 10:14:17;;;;;;;;;;;;;;;5.83;78.87;103041.97;5053187;28;20098;-35
2022/02/11 10:17:01;;;;;;;15.77;3.45;;;;;;;5.83;75.38;103055.38;5053151;28;19995;-35
2022/02/11 10:19:47;;;;;;;14.57;3.50;;;;;;;5.78;76.44;103035.34;5053075;28;20037;-35
2022/02/11 10:22:12;;;;;;;16.53;3.00;;;;;;;5.89;75.25;103057.47;5052980;28;20033;-35
2022/02/11 10:24:39;;;;;;;14.40;2.80;;;;;;;5.96;73.72;103057.78;5053581;28;20056;-34
2022/02/11 10:27:16;;;;;;;13.77;2.97;;;;;;;6.05;74.14;103056.03;5052663;28;20025;-36
2022/02/11 10:29:42;;;;;;;15.40;3.58;;;;;;;6.09;72.82;103060.97;5053314;28;20035;-35
2022/02/11 10:32:07;;;;;;;15.02;3.58;;;;;;;6.22;72.75;103071.41;5052682;28;20056;-35
2022/02/11 10:34:33;;;;;;;16.77;3.07;;;;;;;6.22;72.83;103076.75;5054902;28;20032;-35
2022/02/11 10:37:07;;;;;;;17.27;3.53;;;;;;;6.14;73.09;103050.63;5056988;28;20275;-35
2022/02/11 10:39:34;;;;;;;9.00;2.75;;;;;;;6.32;70.94;103087.47;5056793;28;20025;-36
2022/02/11 10:42:08;;;;;;;14.15;3.35;;;;;;;6.24;68.04;103090.88;5056235;28;20021;-36
2022/02/11 10:44:37;;;;;;;14.18;2.58;;;;;;;6.18;69.85;103099.53;5056330;28;20078;-36
2022/02/11 10:47:04;;;;;;;13.27;2.88;;;;;;;6.09;69.01;103095.03;5056248;28;20086;-35
2022/02/11 10:49:39;;;;;;;19.10;3.10;;;;;;;6.09;65.70;103114.69;5056185;28;20039;-35
2022/02/11 10:52:25;;;;;;;10.25;2.22;;;;;;;6.02;69.24;103110.06;5056006;28;20477;-35
2022/02/11 10:54:53;;;;;;;14.23;2.75;;;;;;;5.88;61.77;103108.66;5057269;28;20056;-34
2022/02/11 10:57:24;;;;;;;10.45;3.40;;;;;;;5.93;62.86;103112.63;5055721;28;20097;-35
2022/02/11 10:59:50;;;;;;;14.32;2.83;;;;;;;6.03;63.77;103107.22;5056014;28;20174;-35
2022/02/11 11:02:24;;;;;;;9.25;2.15;;;;;;;6.18;62.04;103112.97;5054456;28;20069;-35
2022/02/11 11:04:51;;;;;;;9.15;1.90;;;;;;;6.29;61.68;103106.56;5055874;28;20025;-35
2022/02/11 11:07:23;;;;;;;11.30;2.97;;;;;;;6.36;58.21;103118.44;5055876;28;20040;-36
2022/02/11 11:09:52;;;;;;;9.30;2.40;;;;;;;6.46;59.48;103119.25;5056634;28;20029;-35
2022/02/11 11:12:18;;;;;;;8.55;2.08;;;;;;;6.51;61.58;103110.72;5056172;28;20055;-35
2022/02/11 11:14:45;;;;;;;9.68;2.38;;;;;;;6.66;58.89;103133.44;5055983;28;20072;-35
2022/02/11 11:17:13;;;;;;;10.88;2.92;;;;;;;6.74;59.96;103121.94;5055362;28;20040;-35
2022/02/11 11:19:38;;;;;;;8.20;2.45;;;;;;;6.73;61.21;103099.56;5056193;28;20024;-35
2022/02/11 11:22:16;;;;;;;12.57;2.45;;;;;;;7.05;59.66;103141.28;5054859;28;20048;-34
2022/02/11 11:25:00;;;;;;;12.77;2.65;;;;;;;7.04;59.95;103144.97;5055311;28;20472;-35
2022/02/11 11:27:43;;;;;;;8.20;2.25;;;;;;;6.92;59.38;103144.31;5055474;28;20035;-35
2022/02/11 11:30:27;;;;;;;8.32;2.50;;;;;;;6.74;60.72;103130.84;5055993;28;20389;-35
2022/02/11 11:33:04;;;;;;;12.13;2.72;;;;;;;6.65;60.07;103140.66;5055403;28;20082;-36
2022/02/11 11:35:31;;;;;;;8.60;2.47;;;;;;;6.53;59.60;103130.22;5055429;28;20059;-35
2022/02/11 11:38:16;;;;;;;12.48;2.70;;;;;;;6.42;59.54;103139.34;5055876;28;20025;-35
2022/02/11 11:40:56;;;;;;;9.30;2.22;;;;;;;6.37;60.39;103153.22;5055874;28;20036;-35
2022/02/11 11:43:38;;;;;;;8.82;2.33;;;;;;;6.36;60.32;103156.06;5055539;28;20465;-35
2022/02/11 11:46:25;;;;;;;11.85;2.47;;;;;;;6.27;60.72;103165.00;5054949;28;20060;-34
2022/02/11 11:49:08;;;;;;;10.27;2.65;;;;;;;6.19;58.40;103171.09;5054878;28;20082;-34
2022/02/11 11:51:39;;;;;;;13.30;2.45;;;;;;;6.04;59.14;103161.78;5055272;28;20037;-34
2022/02/11 11:54:17;;;;;;;9.27;2.42;;;;;;;5.92;59.22;103161.97;5055942;28;20081;-35
2022/02/11 11:56:47;;;;;;;12.93;2.85;;;;;;;6.02;59.27;103153.88;5055462;28;20374;-34
2022/02/11 11:59:15;;;;;;;12.88;2.17;;;;;;;6.29;59.94;103171.06;5055070;28;20020;-35
2022/02/11 12:02:00;;;;;;;9.32;2.20;;;;;;;6.56;60.85;103167.59;5054758;28;20039;-35
2022/02/11 12:04:26;;;;;;;5.65;2.08;;;;;;;6.58;58.67;103166.41;5055268;28;20035;-35
2022/02/11 12:06:56;;;;;;;9.98;2.28;;;;;;;6.69;56.95;103176.16;5054839;28;20032;-35
2022/02/11 12:09:24;;;;;;;10.50;2.42;;;;;;;6.75;57.16;103183.63;5054783;28;20033;-35
2022/02/11 12:12:10;;;;;;;10.90;2.53;;;;;;;6.79;57.46;103179.66;5054415;28;20499;-35
2022/02/11 12:14:39;;;;;;;10.75;2.50;;;;;;;6.78;56.42;103182.47;5055396;28;20115;-35
2022/02/11 12:17:06;;;;;;;11.48;2.15;;;;;;;6.88;56.70;103184.13;5055278;28;20025;-35
2022/02/11 12:19:33;;;;;;;11.18;2.85;;;;;;;6.85;56.02;103188.97;5054478;28;20358;-35
2022/02/11 12:21:59;;;;;;;10.45;2.47;;;;;;;6.97;56.84;103188.59;5054058;28;20021;-35
2022/02/11 12:27:22;;;;;;;11.85;2.05;;;;;;;7.14;56.87;103181.56;5054558;28;19915;-35
2022/02/11 12:29:51;;;;;;;11.50;2.88;;;;;;;7.15;54.58;103179.72;5053992;28;20052;-35
2022/02/11 12:32:25;;;;;;;10.02;2.78;;;;;;;7.12;53.02;103183.56;5054473;28;20033;-35
2022/02/11 12:34:54;;;;;;;9.20;2.22;;;;;;;7.23;54.09;103191.44;5054883;28;20063;-35
2022/02/11 12:37:19;;;;;;;6.68;1.90;;;;;;;7.17;54.66;103175.91;5054152;28;20096;-35
2022/02/11 12:39:47;;;;;;;6.32;1.85;;;;;;;7.08;52.15;103190.25;5054329;28;20159;-35
2022/02/11 12:42:23;;;;;;;10.90;1.90;;;;;;;6.91;53.56;103186.50;5053932;28;20025;-35
2022/02/11 12:44:49;;;;;;;5.95;1.92;;;;;;;6.77;54.77;103187.00;5054057;28;20036;-35
2022/02/11 12:47:15;;;;;;;10.23;2.00;;;;;;;6.67;53.01;103192.44;5054153;28;20033;-35
2022/02/11 12:49:46;;;;;;;6.20;1.63;;;;;;;6.81;52.49;103193.78;5053617;28;20505;-35
2022/02/11 12:52:21;;;;;;;9.70;2.13;;;;;;;6.80;52.65;103185.88;5053829;28;20108;-36
2022/02/11 12:55:03;;;;;;;6.78;2.03;;;;;;;6.78;53.28;103193.22;5054460;28;20044;-36
2022/02/11 12:57:30;;;;;;;6.07;1.60;;;;;;;6.63;53.14;103201.78;5053561;28;20041;-36
2022/02/11 12:59:57;;;;;;;5.13;1.27;;;;;;;6.58;52.13;103204.06;5053719;28;20021;-36
2022/02/11 13:02:27;;;;;;;6.35;1.85;;;;;;;6.61;52.21;103200.25;5054407;28;20057;-35
2022/02/11 13:05:20;;;;;;;6.47;1.55;;;;;;;6.54;52.34;103193.75;5053661;28;20021;-35
2022/02/11 13:07:48;;;;;;;8.38;1.52;;;;;;;6.70;51.40;103207.44;5053316;28;20025;-35
2022/02/11 13:10:21;;;;;;;6.25;1.60;;;;;;;6.90;51.95;103202.81;5053630;28;20033;-35
2022/02/11 13:12:48;;;;;;;6.05;1.70;;;;;;;7.02;52.00;103209.66;5053529;28;20025;-35
2022/02/11 13:15:16;;;;;;;7.32;1.85;;;;;;;7.05;52.23;103205.84;5053508;28;20029;-35
2022/02/11 13:17:44;;;;;;;9.38;2.10;;;;;;;7.08;53.07;103216.31;5053156;28;20481;-35
2022/02/11 13:20:18;;;;;;;6.15;1.48;;;;;;;7.09;52.62;103218.84;5053176;28;20025;-35
2022/02/11 13:22:45;;;;;;;3.83;1.38;;;;;;;7.04;50.94;103207.69;5053730;28;20039;-35
2022/02/11 13:25:12;;;;;;;9.73;1.90;;;;;;;7.14;52.09;103215.72;5052977;28;20473;-35
2022/02/11 13:28:04;;;;;;;7.55;1.70;;;;;;;7.22;50.54;103207.72;5053265;28;20025;-35
2022/02/11 13:30:31;;;;;;;7.80;2.03;;;;;;;7.29;51.56;103206.13;5053088;28;20461;-35
2022/02/11 13:32:59;;;;;;;5.68;1.70;;;;;;;7.18;51.62;103209.03;5052785;28;20025;-35
2022/02/11 13:35:25;;;;;;;6.57;1.65;;;;;;;7.14;49.99;103221.09;5052927;28;20090;-35
2022/02/11 13:37:58;;;;;;;6.25;1.88;;;;;;;7.18;49.95;103223.34;5052849;28;20028;-35
2022/02/11 13:40:27;;;;;;;3.90;1.42;;;;;;;7.20;49.81;103225.88;5052765;28;20025;-35
2022/02/11 13:42:57;;;;;;;5.97;1.73;;;;;;;7.11;48.85;103224.91;5053178;28;20083;-35
2022/02/11 13:45:24;;;;;;;9.00;1.83;;;;;;;7.11;50.20;103226.75;5053659;28;20166;-35
2022/02/11 13:48:06;;;;;;;8.90;1.95;;;;;;;6.96;50.92;103221.03;5052619;28;20036;-36
2022/02/11 13:50:53;;;;;;;4.75;1.85;;;;;;;6.98;50.76;103243.28;5053700;28;20041;-36
2022/02/11 13:53:43;;;;;;;6.75;1.67;;;;;;;7.00;53.05;103243.13;5052974;28;20041;-36
2022/02/11 13:56:13;;;;;;;7.45;1.70;;;;;;;6.84;52.63;103236.53;5053648;28;20377;-36
2022/02/11 13:58:59;;;;;;;6.95;1.88;;;;;;;6.95;52.72;103243.56;5053033;28;20098;-36
2022/02/11 14:01:26;;;;;;;4.50;1.42;;;;;;;6.85;51.49;103232.00;5052900;28;20386;-36
2022/02/11 14:03:52;;;;;;;6.43;1.58;;;;;;;6.96;50.60;103243.41;5052393;28;20033;-36
2022/02/11 14:06:18;;;;;;;12.15;3.05;;;;;;;6.95;50.15;103241.72;5052743;28;20025;-36
2022/02/11 14:08:45;;;;;;;8.73;1.85;;;;;;;6.85;50.86;103226.63;5053356;28;20035;-36
2022/02/11 14:11:13;;;;;;;8.40;2.13;;;;;;;6.64;49.35;103230.38;5056748;28;20024;-36
2022/02/11 14:13:39;;;;;;;8.60;1.63;;;;;;;6.73;51.41;103242.06;5056454;28;20051;-36
2022/02/11 14:16:05;;;;;;;5.85;1.35;;;;;;;6.69;52.72;103251.47;5056844;28;20100;-36
2022/02/11 14:18:31;;;;;;;9.05;1.80;;;;;;;6.66;51.89;103249.03;5056684;28;20454;-35
2022/02/11 14:20:56;;;;;;;6.20;1.38;;;;;;;6.62;51.65;103247.63;5056594;28;20063;-36
2022/02/11 14:23:22;;;;;;;9.97;1.87;;;;;;;6.62;54.39;103259.25;5056789;28;20124;-36
2022/02/11 14:25:48;;;;;;;8.82;1.63;;;;;;;6.63;53.36;103260.09;5056786;28;20120;-36
2022/02/11 14:28:14;;;;;;;4.55;1.73;;;;;;;6.57;52.35;103258.84;5056127;28;20056;-36
2022/02/11 14:30:40;;;;;;;;;;;;;;;6.69;54.84;103265.75;5057067;28;20441;-36
2022/02/11 14:33:07;;;;;;;5.68;1.52;;;;;;;6.61;53.74;103272.84;5056540;28;19959;-36
2022/02/11 14:35:32;;;;;;;;;;;;;;;6.66;54.81;103266.03;5056968;28;20462;-36
2022/02/11 14:37:58;;;;;;;6.05;1.67;;;;;;;6.59;53.94;103273.00;5056298;28;19916;-36
2022/02/11 14:40:23;;;;;;;7.63;2.27;;;;;;;6.54;55.41;103264.53;5056965;28;20033;-36
2022/02/11 14:42:48;;;;;;;8.20;2.27;;;;;;;6.59;56.44;103281.06;5056074;28;20437;-36
2022/02/11 14:45:14;;;;;;;7.27;2.30;;;;;;;6.69;56.12;103281.03;5056394;28;20473;-36
2022/02/11 14:47:39;;;;;;;7.63;1.73;;;;;;;6.70;56.31;103280.03;5055752;28;20086;-36
2022/02/11 14:50:06;;;;;;;9.80;1.87;;;;;;;6.68;57.99;103276.63;5055774;28;20025;-37
2022/02/11 14:52:32;;;;;;;5.30;1.50;;;;;;;6.61;57.75;103283.59;5055672;28;20033;-35
2022/02/11 14:54:58;;;;;;;12.82;2.85;;;;;;;6.58;55.81;103284.72;5056647;28;20029;-35
2022/02/11 14:57:23;;;;;;;14.27;1.98;;;;;;;6.55;56.23;103290.41;5055511;28;20032;-35
2022/02/11 14:59:49;;;;;;;8.55;2.30;;;;;;;6.51;56.39;103304.28;5056136;28;20033;-35
2022/02/11 15:02:15;;;;;;;11.10;2.42;;;;;;;6.45;55.92;103301.16;5055447;28;20029;-35
2022/02/11 15:04:41;;;;;;;11.88;2.90;;;;;;;6.40;57.57;103300.75;5055630;28;20029;-35
2022/02/11 15:07:07;;;;;;;12.55;2.50;;;;;;;6.39;57.04;103300.88;5055791;28;20025;-35
2022/02/11 15:09:33;;;;;;;8.93;2.05;;;;;;;6.34;57.60;103292.41;5055708;28;20029;-35
2022/02/11 15:11:59;;;;;;;6.32;1.83;;;;;;;6.41;57.07;103305.13;5055654;28;20036;-35
2022/02/11 15:14:26;;;;;;;12.13;2.15;;;;;;;6.37;57.94;103297.50;5055562;28;20025;-35
2022/02/11 15:16:52;;;;;;;8.43;2.00;;;;;;;6.32;57.72;103300.63;5055559;28;20035;-35
2022/02/11 15:19:17;;;;;;;9.80;1.95;;;;;;;6.30;57.57;103299.91;5056051;28;20108;-35
2022/02/11 15:21:43;;;;;;;9.17;2.00;;;;;;;6.30;56.93;103307.97;5054251;28;20518;-35
2022/02/11 15:24:09;;;;;;;7.07;1.88;;;;;;;6.26;57.31;103308.41;5055635;28;20028;-35
2022/02/11 15:26:34;;;;;;;5.50;1.40;;;;;;;6.18;57.97;103298.34;5055519;28;20029;-35
2022/02/11 15:28:59;;;;;;;8.30;2.10;;;;;;;6.29;58.47;103311.63;5055138;28;20103;-35
2022/02/11 15:31:25;;;;;;;6.67;1.87;;;;;;;6.28;59.11;103309.94;5055407;28;20503;-35
2022/02/11 15:33:51;;;;;;;11.77;2.70;;;;;;;6.30;60.22;103313.34;5056097;28;20055;-35